Aeroporto :
LOGIN :

Iscrizione | Disclaimer

   EN    FR    IT 

 










Sommario :    VFR   VFR Marginale   IFR   IFR Intensivo   IFR Molto Intensivo
Visibilità : 
Base nubi : 
>= 8 km
>= 3000ft
5 / 8 km
1000 / 3000 ft
1500m / 5 km
500 / 1000 ft
800 / 1500m
200 / 500 ft
< 800m
< 200 ft
Simboli :   Temporali  Nebbia  Neve Forte  Precipitazioni Forti  Vento > 20 kt
SIGMETs :   Varie  Temporali  Ghiacco  Turbolenza  Onda orograficha  Ceneri Vulcaniche






- Altitudine del aeroporto : 177 ft
- Codice IATA : BRI


LIBD - Palese Macchie Bari

ULTIMO METAR :
  • 271120Z 27014KT 9999 FEW030 10/03 Q1013

METARs OBSOLETI :
  • 271050Z 28017G28KT 9999 FEW003 SCT045 08/03 Q1013
  • 271020Z 29013G23KT 250V320 9999 VCSH FEW030TCU SCT045 08/03 Q1013 RERA
  • 270950Z 29018G33KT 9999 RA FEW030TCU SCT045 09/02 Q1013
  • 270920Z 29019G32KT 9999 FEW035TCU 09/01 Q1011
  • 270850Z 28018KT 9999 FEW035TCU 10/02 Q1011

TAF TAF LIBD
Valido dal 27 a 12 ore il 28 a 12 ore UTC


271100Z 2712/2812 26018G28KT 9999 SCT030
BECMG 2712/2714 34012KT
BECMG 2716/2718 19012KT
TEMPO 2800/2806 RA
BECMG 2805/2808 33020G30KT



MetMap, La meteo Aeronautica in un colpo d'occhio ! - Copyright ORBIFLY Dicembre 2007 - Disclaimer

ORBIFLY MET'MAP TEAM :

Programmazione e sviluppo : Alexandra Zaïnal
Concezione : Baudouin d'Aumeries
Aiuto per la programmazione : Marc-Olivier Méhu
Supporto tecnico e logistico : Manuel Goepfert
Aiuto per la traduzione : Arnaldo La Scala

Contatto : metmap@orbifly.com




FONTI E CREDITI :

   NOAA